메인 페이지
METAR-TAF:

METAR-TAF

공항 :

퀴타히아, 터키

위도: 39-06-41N, 경도: 30-07-48E, 고도: 1013m

현재 날씨관측

예보는 4 시간 39분 전, 12:50시(UTC)에 발표되었습니다.
여러 방향의 바람 3kt
온도 9°C
습도 66%
기압 1014 hPa
시정 10km 이상
1500m 미만 상공 구름 및 적란운 없음

METAR: LTBZ 241250Z VRB03KT CAVOK 09/03 Q1014

시각: 20:29 (17:29 UTC)

예보

예보는 3 시간 49분 전, 13:40시(UTC)에 발표되었습니다.
예보 대상 시간: 24일 15시부터 24일 24시까지 (UTC)
서북서8kt
시정 10km 이상
고도 4000ft 상공 구름 보통
고도 10000ft 상공 구름 많음
전환 중
24일 18시부터 24일 21시까지 (UTC)
고도 3500ft 상공 구름 많음

TAF: LTBZ 241340Z 2415/2424 30008KT 9999 SCT040 BKN100 BECMG 2418/2421 BKN035

4,000개 이상의 공항 관측 자료 및 예보 (METAR 및 TAF 보고).

지도상에서 검색 가능한 기상관측소가 노란 점과 빨간 점으로 표시되어 있습니다.

기상관측소 명을 보려면 표시 위로 마우스를 이동하세요.

날씨 관측과 예보를 보려면 클릭하세요.

지도 변경 : 확대하려면 엑스 표시가 있는 녹색 버튼, 축소하려면 빼기 표시가 있는 녹색 버튼, 다음 페이지의 지도를 보려면 녹색 화살표를 클릭하세요.


METAR-TAF: